Time;durP1;ratioP1;P1;durP2;ratioP2;P2;SDS_P1;SDS_P2;PMS_P1;PMS_P2;Temp;Humidity;BMP_temperature;BMP_pressure;BME280_temperature;BME280_humidity;BME280_pressure;Samples;Min_cycle;Max_cycle;Signal;HPM_P1;HPM_P2
2022/02/06 00:00:55;;;;;;;16.48;8.02;;;0.30;99.90;;;;;;5033435;28;20104;-90
2022/02/06 00:03:21;;;;;;;15.63;7.90;;;0.40;99.90;;;;;;5033564;28;20495;-89
2022/02/06 00:05:48;;;;;;;16.10;8.02;;;0.40;99.90;;;;;;5033762;28;20163;-89
2022/02/06 00:08:20;;;;;;;15.27;8.10;;;0.50;99.90;;;;;;5044624;28;20033;-89
2022/02/06 00:10:46;;;;;;;16.02;8.18;;;0.50;99.90;;;;;;5047275;28;20033;-89
2022/02/06 00:13:15;;;;;;;14.93;7.55;;;0.50;99.90;;;;;;5032696;28;20021;-89
2022/02/06 00:15:40;;;;;;;14.80;7.07;;;0.50;99.90;;;;;;5033283;28;20025;-89
2022/02/06 00:18:09;;;;;;;16.45;7.70;;;0.50;99.90;;;;;;5033263;28;20033;-88
2022/02/06 00:20:46;;;;;;;16.45;7.70;;;0.60;99.90;;;;;;5036959;28;20022;-89
2022/02/06 00:23:15;;;;;;;13.05;6.82;;;0.60;99.90;;;;;;5037888;28;20022;-88
2022/02/06 00:31:09;;;;;;;11.48;6.35;;;0.60;99.90;;;;;;5038122;28;20022;-86
2022/02/06 00:33:43;;;;;;;14.45;6.60;;;0.50;99.90;;;;;;5036692;28;20026;-89
2022/02/06 00:39:05;;;;;;;10.45;6.68;;;0.50;99.90;;;;;;5058159;28;20388;-88
2022/02/06 00:41:33;;;;;;;16.05;6.70;;;0.50;99.90;;;;;;5057051;28;20116;-88
2022/02/06 00:44:02;;;;;;;10.98;7.20;;;0.50;99.90;;;;;;5056546;28;20025;-88
2022/02/06 00:46:35;;;;;;;10.80;6.57;;;0.50;99.90;;;;;;5057064;28;20025;-87
2022/02/06 00:49:10;;;;;;;15.38;6.60;;;0.60;99.90;;;;;;5056480;28;20025;-88
2022/02/06 00:51:44;;;;;;;10.07;5.60;;;0.60;99.90;;;;;;5046702;28;20115;-88
2022/02/06 00:54:10;;;;;;;10.18;5.45;;;0.70;99.90;;;;;;5036558;28;20025;-88
2022/02/06 00:56:39;;;;;;;11.30;5.55;;;0.70;99.90;;;;;;5038258;28;20028;-88
2022/02/06 00:59:05;;;;;;;11.55;5.97;;;0.70;99.90;;;;;;5039808;28;20021;-89
2022/02/06 01:01:31;;;;;;;9.57;5.78;;;0.80;99.90;;;;;;5040348;28;20021;-89
2022/02/06 01:03:57;;;;;;;12.18;6.20;;;0.80;99.90;;;;;;5039392;28;20060;-89
2022/02/06 01:06:26;;;;;;;14.55;6.47;;;0.80;99.90;;;;;;5048173;28;20020;-89
2022/02/06 01:08:54;;;;;;;11.25;6.63;;;0.80;99.90;;;;;;5059449;28;20025;-88
2022/02/06 01:11:25;;;;;;;13.05;6.25;;;0.80;99.90;;;;;;5058935;28;20470;-88
2022/02/06 01:17:02;;;;;;;10.57;6.20;;;0.80;99.90;;;;;;5063807;28;20124;-88
2022/02/06 01:19:40;;;;;;;16.00;7.93;;;0.70;99.90;;;;;;5059053;28;20032;-89
2022/02/06 01:22:12;;;;;;;15.10;6.80;;;0.70;99.90;;;;;;5057664;28;20020;-88
2022/02/06 01:27:12;;;;;;;12.20;6.53;;;0.60;99.90;;;;;;5056439;28;20082;-88
2022/02/06 01:29:48;;;;;;;13.50;6.07;;;0.60;99.90;;;;;;5038526;28;20025;-89
2022/02/06 01:32:19;;;;;;;11.82;5.80;;;0.60;99.90;;;;;;5057983;28;20028;-89
2022/02/06 01:40:04;;;;;;;10.18;5.25;;;0.50;99.90;;;;;;5062764;28;20112;-89
2022/02/06 01:42:39;;;;;;;11.70;5.00;;;0.50;99.90;;;;;;5038865;28;20029;-88
2022/02/06 02:01:49;;;;;;;13.35;6.03;;;0.50;99.90;;;;;;5076424;28;20028;-88
2022/02/06 02:04:52;;;;;;;14.25;5.90;;;0.50;99.90;;;;;;5058255;28;20100;-87
2022/02/06 02:10:27;;;;;;;10.57;5.53;;;0.50;99.90;;;;;;5056406;28;20482;-88
2022/02/06 02:16:11;;;;;;;13.55;6.05;;;0.60;99.90;;;;;;5056314;28;20115;-88
2022/02/06 02:47:42;;;;;;;13.57;5.65;;;0.90;99.90;;;;;;5055190;28;20104;-88
2022/02/06 02:50:18;;;;;;;11.70;6.03;;;0.90;99.90;;;;;;5038338;28;20029;-88
2022/02/06 02:53:07;;;;;;;9.77;5.18;;;0.90;99.90;;;;;;5045998;28;20105;-88
2022/02/06 02:58:19;;;;;;;9.93;5.18;;;0.90;99.90;;;;;;5075400;28;20045;-88
2022/02/06 03:01:07;;;;;;;9.85;5.03;;;0.90;99.90;;;;;;5057370;28;20028;-88
2022/02/06 03:03:38;;;;;;;12.68;5.55;;;1.00;99.90;;;;;;5057502;28;20494;-88
2022/02/06 03:06:08;;;;;;;10.18;5.07;;;0.90;99.90;;;;;;5058045;28;20162;-88
2022/02/06 03:08:36;;;;;;;12.50;5.57;;;0.90;99.90;;;;;;5049665;28;20028;-88
2022/02/06 03:11:07;;;;;;;8.57;5.20;;;1.00;99.90;;;;;;5057427;28;20058;-88
2022/02/06 03:13:39;;;;;;;10.07;5.88;;;0.90;99.90;;;;;;5057126;28;20109;-88
2022/02/06 03:16:19;;;;;;;10.38;5.50;;;1.00;99.90;;;;;;5057405;28;20036;-86
2022/02/06 03:21:20;;;;;;;11.43;5.50;;;1.00;99.90;;;;;;5074677;28;20108;-88
2022/02/06 03:23:50;;;;;;;10.48;5.18;;;1.00;99.90;;;;;;5049475;28;20021;-88
2022/02/06 03:26:19;;;;;;;18.65;5.88;;;0.90;99.90;;;;;;5037105;28;20052;-88
2022/02/06 03:28:46;;;;;;;10.80;5.72;;;0.90;99.90;;;;;;5036844;28;20025;-88
2022/02/06 03:31:12;;;;;;;10.23;5.80;;;0.90;99.90;;;;;;5037217;28;20029;-88
2022/02/06 03:33:40;;;;;;;13.50;5.82;;;0.90;99.90;;;;;;5037296;28;20418;-89
2022/02/06 03:36:06;;;;;;;9.82;5.63;;;0.90;99.90;;;;;;5038058;28;20024;-89
2022/02/06 03:38:35;;;;;;;9.73;5.68;;;0.90;99.90;;;;;;5044077;28;20482;-88
2022/02/06 03:41:10;;;;;;;11.23;6.40;;;0.90;99.90;;;;;;5056322;28;20046;-88
2022/02/06 03:43:51;;;;;;;10.80;6.85;;;0.90;99.90;;;;;;5057447;28;20375;-88
2022/02/06 03:47:04;;;;;;;;;;;0.90;99.90;;;;;;5057268;28;20028;-88
2022/02/06 03:49:15;;;;;;;12.32;5.97;;;0.90;99.90;;;;;;5068559;28;20366;-88
2022/02/06 03:51:48;;;;;;;11.73;5.93;;;0.90;99.90;;;;;;5057443;28;20021;-88
2022/02/06 03:54:13;;;;;;;9.65;5.30;;;0.80;99.90;;;;;;5055196;28;20025;-88
2022/02/06 03:56:41;;;;;;;15.38;5.55;;;0.80;99.90;;;;;;5056375;28;20028;-88
2022/02/06 03:59:07;;;;;;;16.00;6.00;;;0.80;99.90;;;;;;5057571;28;20056;-88
2022/02/06 04:01:33;;;;;;;9.80;5.30;;;0.80;99.90;;;;;;5056563;28;20120;-88
2022/02/06 04:03:58;;;;;;;11.20;6.45;;;0.80;99.90;;;;;;5055552;28;20510;-88
2022/02/06 04:06:28;;;;;;;10.88;5.57;;;0.80;99.90;;;;;;5056956;28;20020;-88
2022/02/06 04:08:56;;;;;;;11.75;6.32;;;0.80;99.90;;;;;;5056503;28;20030;-88
2022/02/06 04:11:46;;;;;;;10.98;5.75;;;0.70;99.90;;;;;;5057574;28;20025;-89
2022/02/06 04:17:17;;;;;;;9.93;6.15;;;0.70;99.90;;;;;;5035742;28;20142;-89
2022/02/06 04:19:43;;;;;;;9.68;5.57;;;0.70;99.90;;;;;;5036448;28;20025;-89
2022/02/06 04:22:25;;;;;;;11.55;5.95;;;0.70;99.90;;;;;;5036340;28;20040;-88
2022/02/06 04:24:56;;;;;;;13.73;6.90;;;0.70;99.90;;;;;;5036391;28;20025;-88
2022/02/06 04:27:22;;;;;;;11.20;5.68;;;0.70;99.90;;;;;;5037094;28;20029;-89
2022/02/06 04:29:49;;;;;;;14.43;6.00;;;0.70;99.90;;;;;;5036412;28;20475;-88
2022/02/06 04:32:15;;;;;;;11.60;5.78;;;0.70;99.90;;;;;;5037376;28;20032;-88
2022/02/06 04:34:41;;;;;;;11.52;6.05;;;0.70;99.90;;;;;;5046947;28;20032;-87
2022/02/06 04:42:30;;;;;;;11.90;6.55;;;0.70;99.90;;;;;;5073924;28;20099;-89
2022/02/06 04:48:46;;;;;;;16.50;7.65;;;0.70;99.90;;;;;;5074347;28;20116;-88
2022/02/06 04:53:41;;;;;;;12.18;7.47;;;0.70;99.90;;;;;;5053939;28;20036;-88
2022/02/06 05:30:48;;;;;;;14.82;8.30;;;0.80;99.90;;;;;;5076742;28;20020;-88
2022/02/06 05:33:14;;;;;;;14.05;7.35;;;0.80;99.90;;;;;;5059411;28;20024;-87
2022/02/06 05:35:42;;;;;;;15.50;7.97;;;0.80;99.90;;;;;;5059256;28;20027;-87
2022/02/06 05:38:08;;;;;;;13.88;8.25;;;0.80;99.90;;;;;;5058933;28;20037;-87
2022/02/06 05:40:35;;;;;;;15.95;8.00;;;0.80;99.90;;;;;;5054844;28;20090;-88
2022/02/06 05:43:03;;;;;;;14.73;8.45;;;0.80;99.90;;;;;;5041948;28;20029;-88
2022/02/06 05:45:31;;;;;;;16.63;7.70;;;0.80;99.90;;;;;;5058831;28;20116;-88
2022/02/06 05:48:05;;;;;;;15.80;8.00;;;0.80;99.90;;;;;;5059592;28;20040;-87
2022/02/06 05:50:33;;;;;;;23.25;11.27;;;0.80;99.90;;;;;;5058606;28;20123;-88
2022/02/06 05:53:02;;;;;;;35.15;15.75;;;0.70;99.90;;;;;;5058861;28;20463;-88
2022/02/06 05:55:30;;;;;;;25.80;13.32;;;0.70;99.90;;;;;;5053571;28;20032;-88
2022/02/06 05:58:01;;;;;;;21.40;11.05;;;0.70;99.90;;;;;;5038705;28;20077;-88
2022/02/06 06:00:27;;;;;;;19.30;9.57;;;0.70;99.90;;;;;;5039016;28;20052;-88
2022/02/06 06:02:53;;;;;;;31.63;13.90;;;0.70;99.90;;;;;;5038919;28;20029;-88
2022/02/06 06:05:20;;;;;;;33.40;15.23;;;0.60;99.90;;;;;;5038594;28;20356;-88
2022/02/06 06:07:46;;;;;;;31.90;14.00;;;0.50;99.90;;;;;;5038336;28;20100;-87
2022/02/06 06:10:15;;;;;;;22.33;11.55;;;0.40;99.90;;;;;;5057884;28;20032;-90
2022/02/06 06:12:50;;;;;;;17.27;10.35;;;0.40;99.90;;;;;;5058618;28;20028;-88
2022/02/06 06:15:19;;;;;;;16.65;10.27;;;0.40;99.90;;;;;;5059245;28;20056;-88
2022/02/06 06:17:47;;;;;;;17.88;8.55;;;0.40;99.90;;;;;;5057288;28;20068;-88
2022/02/06 06:20:19;;;;;;;19.15;8.85;;;0.40;99.90;;;;;;5053550;28;20078;-87
2022/02/06 06:22:47;;;;;;;15.60;8.40;;;0.50;99.90;;;;;;5038739;28;20021;-87
2022/02/06 06:25:13;;;;;;;16.55;9.13;;;0.50;99.90;;;;;;5038350;28;20029;-85
2022/02/06 06:27:39;;;;;;;14.48;8.93;;;0.60;99.90;;;;;;5038070;28;20025;-88
2022/02/06 06:30:08;;;;;;;15.82;9.02;;;0.70;99.90;;;;;;5038535;28;20037;-87
2022/02/06 06:32:36;;;;;;;18.02;8.48;;;0.80;99.90;;;;;;5044815;28;20111;-87
2022/02/06 06:35:06;;;;;;;14.45;8.25;;;0.90;99.90;;;;;;5058063;28;20077;-87
2022/02/06 06:37:37;;;;;;;18.85;9.48;;;1.00;99.90;;;;;;5057918;28;20032;-87
2022/02/06 06:40:03;;;;;;;16.27;9.00;;;1.10;99.90;;;;;;5051765;28;20147;-88
2022/02/06 06:42:29;;;;;;;16.30;9.15;;;1.10;99.90;;;;;;5056789;28;20021;-88
2022/02/06 06:44:55;;;;;;;14.25;7.95;;;1.20;99.90;;;;;;5038687;28;20032;-87
2022/02/06 06:47:21;;;;;;;19.58;8.27;;;1.20;99.90;;;;;;5038863;28;20349;-88
2022/02/06 06:49:49;;;;;;;14.23;7.88;;;1.20;99.90;;;;;;5039822;28;20028;-87
2022/02/06 15:03:35;;;;;;;17.85;7.97;;;2.30;99.40;;;;;;5001288;28;1473587;-92
2022/02/06 15:06:01;;;;;;;19.92;8.70;;;2.20;99.40;;;;;;5050699;28;20061;-93
2022/02/06 15:08:27;;;;;;;24.67;10.20;;;2.20;99.90;;;;;;5050692;28;20071;-92
2022/02/06 15:10:55;;;;;;;32.38;10.65;;;2.20;99.90;;;;;;5050193;28;20029;-94
2022/02/06 15:13:27;;;;;;;23.23;8.65;;;2.20;99.90;;;;;;5011373;28;20113;-94
2022/02/06 15:16:00;;;;;;;24.50;9.23;;;2.10;99.90;;;;;;5047573;28;20029;-93
2022/02/06 15:18:36;;;;;;;20.30;8.98;;;2.20;99.90;;;;;;5051306;28;20021;-93
2022/02/06 15:21:07;;;;;;;21.40;9.45;;;2.20;99.90;;;;;;5050605;28;20025;-94
2022/02/06 15:23:33;;;;;;;16.98;7.95;;;2.20;99.90;;;;;;5050465;28;20025;-93
2022/02/06 15:25:59;;;;;;;19.42;9.85;;;2.20;99.90;;;;;;5050029;28;20017;-93
2022/02/06 15:28:28;;;;;;;21.70;9.95;;;2.20;99.90;;;;;;5050043;28;20033;-93
2022/02/06 15:30:57;;;;;;;17.35;8.43;;;2.10;99.90;;;;;;5050149;28;20029;-93
2022/02/06 15:33:24;;;;;;;14.57;7.65;;;2.10;99.90;;;;;;5050316;28;20414;-94
2022/02/06 15:36:01;;;;;;;67.07;22.77;;;2.00;99.90;;;;;;5050333;28;20022;-95
2022/02/06 15:38:31;;;;;;;68.68;22.65;;;1.90;99.90;;;;;;5050158;28;20029;-94
2022/02/06 15:41:00;;;;;;;25.40;9.73;;;1.80;99.90;;;;;;5042501;28;20499;-95
2022/02/06 15:43:29;;;;;;;16.53;7.70;;;1.80;99.90;;;;;;5030760;28;20042;-94
2022/02/06 15:45:59;;;;;;;16.20;7.93;;;1.70;99.90;;;;;;5030207;28;20259;-94
2022/02/06 15:48:29;;;;;;;16.90;7.20;;;1.60;99.90;;;;;;5030036;28;20490;-93
2022/02/06 15:50:55;;;;;;;16.00;7.93;;;1.50;99.90;;;;;;5030015;28;20017;-93
2022/02/06 15:53:21;;;;;;;28.05;11.32;;;1.40;99.90;;;;;;5030160;28;20030;-95
2022/02/06 15:55:50;;;;;;;48.05;17.30;;;1.40;99.90;;;;;;5029932;28;20037;-94
2022/02/06 15:58:15;;;;;;;39.80;16.02;;;1.30;99.90;;;;;;5030073;28;20108;-95
2022/02/06 16:00:47;;;;;;;42.38;17.05;;;1.20;99.90;;;;;;5030590;28;20060;-95
2022/02/06 16:03:16;;;;;;;46.42;21.65;;;1.20;99.90;;;;;;5029685;28;20037;-95
2022/02/06 16:05:53;;;;;;;77.55;31.38;;;1.10;99.90;;;;;;5047275;28;20076;-95
2022/02/06 16:09:04;;;;;;;73.07;33.25;;;1.10;99.90;;;;;;5032586;28;20407;-96
2022/02/06 16:11:50;;;;;;;46.75;22.67;;;1.00;99.90;;;;;;5063718;28;20472;-96
2022/02/06 16:14:21;;;;;;;33.20;16.40;;;1.00;99.90;;;;;;5045440;28;20116;-96
2022/02/06 16:17:04;;;;;;;32.85;15.38;;;0.80;99.90;;;;;;5046674;28;20025;-96
2022/02/06 16:22:57;;;;;;;21.55;9.45;;;0.70;99.90;;;;;;5045151;28;20046;-96
2022/02/06 16:25:23;;;;;;;25.45;10.13;;;0.70;99.90;;;;;;5037369;28;20460;-96
2022/02/06 16:28:07;;;;;;;19.48;8.85;;;0.60;99.90;;;;;;5037466;28;20032;-96
2022/02/06 16:30:35;;;;;;;19.50;8.60;;;0.60;99.90;;;;;;5037478;28;20021;-96
2022/02/06 16:36:06;;;;;;;18.95;10.10;;;0.60;99.90;;;;;;5033978;28;20136;-96
2022/02/06 16:38:37;;;;;;;23.38;10.90;;;0.50;99.90;;;;;;5037958;28;20031;-96
2022/02/06 16:41:11;;;;;;;26.45;11.55;;;0.50;99.90;;;;;;5036177;28;20033;-96
2022/02/06 16:43:42;;;;;;;28.00;12.68;;;0.40;99.90;;;;;;5035751;28;20040;-95
2022/02/06 16:46:13;;;;;;;36.72;16.27;;;0.40;99.90;;;;;;5035865;28;20106;-95
2022/02/06 16:48:42;;;;;;;35.85;16.88;;;0.30;99.90;;;;;;5035569;28;20053;-95
2022/02/06 16:51:14;;;;;;;27.92;13.02;;;0.30;99.90;;;;;;5035777;28;20021;-95
2022/02/06 16:53:41;;;;;;;18.50;9.13;;;0.30;99.90;;;;;;5034876;28;20041;-95
2022/02/06 16:56:07;;;;;;;16.17;9.07;;;0.30;99.90;;;;;;5035149;28;20032;-95
2022/02/06 16:58:47;;;;;;;17.92;9.38;;;0.30;99.90;;;;;;5034626;28;20041;-96
2022/02/06 17:01:14;;;;;;;19.37;9.50;;;0.30;99.90;;;;;;5035090;28;20025;-96
2022/02/06 17:03:48;;;;;;;22.10;10.82;;;0.30;99.90;;;;;;5035976;28;20267;-95
2022/02/06 17:06:20;;;;;;;23.73;10.07;;;0.30;99.90;;;;;;5037950;28;20022;-96
2022/02/06 17:08:46;;;;;;;23.33;10.95;;;0.30;99.90;;;;;;5035239;28;20499;-96
2022/02/06 17:11:15;;;;;;;21.75;9.98;;;0.30;99.90;;;;;;5035261;28;20033;-95
2022/02/06 17:13:44;;;;;;;19.25;10.30;;;0.30;99.90;;;;;;5035692;28;20029;-94
2022/02/06 17:16:10;;;;;;;31.92;14.40;;;0.20;99.90;;;;;;5034770;28;20025;-95
2022/02/06 17:18:41;;;;;;;22.88;12.57;;;0.20;99.90;;;;;;5035629;28;20083;-95
2022/02/06 17:21:55;;;;;;;27.50;15.07;;;0.20;99.90;;;;;;5034762;28;20025;-96
2022/02/06 17:24:26;;;;;;;23.40;14.57;;;0.20;99.90;;;;;;5034624;28;20033;-96
2022/02/06 17:26:52;;;;;;;26.13;14.10;;;0.20;99.90;;;;;;5035349;28;20026;-96
2022/02/06 17:29:23;;;;;;;32.78;19.15;;;0.30;99.90;;;;;;5035614;28;20032;-96
2022/02/06 17:31:52;;;;;;;36.85;19.45;;;0.40;99.90;;;;;;5034767;28;20029;-95
2022/02/06 17:34:23;;;;;;;38.10;23.15;;;0.50;99.90;;;;;;5033565;28;20045;-96
2022/02/06 17:36:54;;;;;;;33.28;17.25;;;0.60;99.90;;;;;;5034231;28;20092;-96
2022/02/06 17:39:28;;;;;;;28.02;15.07;;;0.60;99.90;;;;;;5034418;28;20025;-96
2022/02/06 17:41:54;;;;;;;32.80;17.65;;;0.70;99.90;;;;;;5034565;28;20026;-96
2022/02/06 17:44:25;;;;;;;36.05;22.10;;;0.70;99.90;;;;;;5034234;28;20026;-96
2022/02/06 17:46:58;;;;;;;39.17;21.02;;;0.80;99.90;;;;;;5034322;28;20022;-96
2022/02/06 17:49:30;;;;;;;49.95;23.77;;;0.80;99.90;;;;;;5034451;28;20029;-96
2022/02/06 17:51:58;;;;;;;44.90;24.38;;;0.80;99.90;;;;;;5035009;28;20029;-95
2022/02/06 17:54:29;;;;;;;48.53;21.83;;;0.80;99.90;;;;;;5034198;28;20544;-96
2022/02/06 17:57:00;;;;;;;39.22;20.70;;;0.80;99.90;;;;;;5034156;28;20025;-96
2022/02/06 17:59:28;;;;;;;39.08;19.67;;;0.80;99.90;;;;;;5033928;28;20057;-96
2022/02/06 18:02:03;;;;;;;39.22;22.70;;;0.80;99.90;;;;;;5034335;28;20049;-95
2022/02/06 18:07:23;;;;;;;43.58;19.10;;;0.90;99.90;;;;;;5032014;28;20376;-96
2022/02/06 18:09:56;;;;;;;39.92;21.27;;;1.00;99.90;;;;;;5017423;28;20033;-96
2022/02/06 18:12:25;;;;;;;38.47;21.63;;;1.00;99.90;;;;;;5033850;28;20026;-96
2022/02/06 18:14:51;;;;;;;51.88;25.17;;;1.00;99.90;;;;;;5033990;28;20034;-94
2022/02/06 18:17:21;;;;;;;60.03;32.80;;;1.00;99.90;;;;;;5015715;28;20025;-95
2022/02/06 18:19:48;;;;;;;48.42;25.70;;;1.10;99.90;;;;;;5015954;28;20558;-96
2022/02/06 18:22:24;;;;;;;42.75;22.92;;;1.10;99.90;;;;;;5017438;28;20026;-96
2022/02/06 18:25:02;;;;;;;33.80;20.70;;;1.10;99.90;;;;;;5017228;28;20026;-96
2022/02/06 18:27:32;;;;;;;35.58;19.83;;;1.10;99.90;;;;;;5015284;28;20042;-96
2022/02/06 18:29:58;;;;;;;36.72;19.98;;;1.10;99.90;;;;;;5016807;28;20022;-96
2022/02/06 18:32:24;;;;;;;36.97;19.73;;;1.20;99.90;;;;;;5020081;28;20080;-96
2022/02/06 18:34:50;;;;;;;40.08;21.38;;;1.20;99.90;;;;;;5019406;28;20034;-96
2022/02/06 18:37:16;;;;;;;43.45;22.35;;;1.20;99.90;;;;;;5017513;28;20034;-96
2022/02/06 18:39:42;;;;;;;41.85;23.20;;;1.20;99.90;;;;;;5015860;28;20026;-96
2022/02/06 18:42:09;;;;;;;35.38;21.65;;;1.20;99.90;;;;;;5013429;28;20469;-96
2022/02/06 18:44:39;;;;;;;35.53;18.60;;;1.20;99.90;;;;;;5014993;28;20029;-96
2022/02/06 18:47:08;;;;;;;33.58;17.48;;;1.20;99.90;;;;;;5013695;28;20536;-96
2022/02/06 18:49:35;;;;;;;35.13;18.40;;;1.20;99.90;;;;;;5014077;28;20030;-96
2022/02/06 18:52:04;;;;;;;34.72;17.67;;;1.20;99.90;;;;;;5013157;28;20034;-93
2022/02/06 18:54:30;;;;;;;35.53;17.95;;;1.30;99.90;;;;;;5013540;28;20032;-95
2022/02/06 18:57:02;;;;;;;32.88;16.60;;;1.30;99.90;;;;;;5013343;28;20025;-94
2022/02/06 18:59:29;;;;;;;30.70;14.35;;;1.30;99.90;;;;;;5014065;28;20114;-95
2022/02/06 19:02:04;;;;;;;29.23;13.15;;;1.30;99.90;;;;;;5013864;28;20050;-95
2022/02/06 19:04:30;;;;;;;24.20;12.95;;;1.40;99.90;;;;;;5013404;28;20525;-96
2022/02/06 19:06:59;;;;;;;23.02;12.88;;;1.30;99.90;;;;;;5014289;28;20029;-96
2022/02/06 19:09:27;;;;;;;26.13;12.75;;;1.40;99.90;;;;;;5013582;28;20018;-96
2022/02/06 19:11:53;;;;;;;26.38;13.45;;;1.40;99.90;;;;;;5013344;28;20038;-95
2022/02/06 19:14:21;;;;;;;27.02;12.82;;;1.40;99.90;;;;;;5013529;28;20061;-93
2022/02/06 19:16:53;;;;;;;28.17;12.70;;;1.40;99.90;;;;;;5013663;28;20029;-95
2022/02/06 19:19:27;;;;;;;27.08;14.45;;;1.40;99.90;;;;;;5014161;28;20338;-96
2022/02/06 19:21:53;;;;;;;20.08;11.57;;;1.40;99.90;;;;;;5013189;28;20050;-92
2022/02/06 19:24:20;;;;;;;47.55;18.40;;;1.40;99.90;;;;;;5013268;28;20026;-90
2022/02/06 19:26:45;;;;;;;45.83;18.85;;;1.40;99.90;;;;;;5013015;28;20021;-95
2022/02/06 19:29:11;;;;;;;34.50;14.68;;;1.40;99.90;;;;;;5013181;28;20495;-95
2022/02/06 19:31:38;;;;;;;24.98;12.40;;;1.50;99.90;;;;;;5013043;28;20539;-90
2022/02/06 19:34:20;;;;;;;32.15;14.65;;;1.40;99.90;;;;;;5013156;28;20037;-90
2022/02/06 19:36:46;;;;;;;28.02;14.68;;;1.50;99.90;;;;;;5013111;28;20021;-90
2022/02/06 19:39:14;;;;;;;29.67;14.23;;;1.50;99.90;;;;;;5013189;28;20461;-90
2022/02/06 19:41:41;;;;;;;28.05;12.15;;;1.50;99.90;;;;;;5013163;28;20030;-91
2022/02/06 19:44:07;;;;;;;25.58;13.80;;;1.50;99.90;;;;;;5012421;28;20473;-91
2022/02/06 19:46:39;;;;;;;24.80;10.20;;;1.50;99.90;;;;;;5013172;28;20030;-91
2022/02/06 19:49:06;;;;;;;21.38;10.05;;;1.50;99.90;;;;;;5015323;28;20026;-90
2022/02/06 19:51:35;;;;;;;25.75;11.85;;;1.50;99.90;;;;;;5016832;28;20427;-90
2022/02/06 19:54:02;;;;;;;21.27;9.45;;;1.50;99.90;;;;;;5017069;28;20026;-91
2022/02/06 19:56:29;;;;;;;21.85;10.77;;;1.50;99.90;;;;;;5016698;28;20105;-90
2022/02/06 19:58:56;;;;;;;15.90;9.95;;;1.50;99.90;;;;;;5017008;28;20522;-90
2022/02/06 20:01:22;;;;;;;22.15;11.70;;;1.50;99.90;;;;;;5015818;28;20113;-90
2022/02/06 20:03:47;;;;;;;17.05;8.77;;;1.50;99.90;;;;;;5017121;28;20423;-90
2022/02/06 20:06:17;;;;;;;18.80;10.38;;;1.50;99.90;;;;;;5030018;28;20027;-90
2022/02/06 20:08:43;;;;;;;14.68;8.13;;;1.50;99.90;;;;;;5036812;28;20029;-90
2022/02/06 20:11:09;;;;;;;15.10;7.50;;;1.50;99.90;;;;;;5035973;28;20090;-90
2022/02/06 20:13:36;;;;;;;19.27;7.90;;;1.50;99.90;;;;;;5036219;28;20053;-91
2022/02/06 20:16:16;;;;;;;16.70;7.60;;;1.50;99.90;;;;;;5033198;28;20029;-90
2022/02/06 20:18:43;;;;;;;13.90;7.80;;;1.50;99.90;;;;;;5015987;28;20030;-93
2022/02/06 20:21:09;;;;;;;13.77;7.13;;;1.50;99.90;;;;;;5016158;28;20100;-90
2022/02/06 20:23:35;;;;;;;16.77;8.48;;;1.50;99.90;;;;;;5016174;28;20030;-90
2022/02/06 20:26:03;;;;;;;18.60;9.27;;;1.50;99.90;;;;;;5016257;28;20028;-91
2022/02/06 20:28:29;;;;;;;17.13;7.40;;;1.50;99.90;;;;;;5016051;28;20546;-90
2022/02/06 20:30:55;;;;;;;18.45;8.88;;;1.50;99.90;;;;;;5016238;28;20026;-91
2022/02/06 20:33:21;;;;;;;19.02;9.63;;;1.50;99.90;;;;;;5016128;28;20037;-90
2022/02/06 20:35:49;;;;;;;18.58;8.80;;;1.50;99.90;;;;;;5015993;28;20022;-90
2022/02/06 20:38:14;;;;;;;19.30;9.25;;;1.50;99.90;;;;;;5015807;28;20501;-91
2022/02/06 20:40:41;;;;;;;20.83;9.23;;;1.50;99.90;;;;;;5015703;28;20030;-90
2022/02/06 20:43:07;;;;;;;18.00;8.77;;;1.50;99.90;;;;;;5015635;28;20026;-90
2022/02/06 20:45:32;;;;;;;16.80;8.43;;;1.50;99.90;;;;;;5015906;28;20036;-90
2022/02/06 20:47:58;;;;;;;18.63;8.40;;;1.50;99.90;;;;;;5015901;28;20350;-90
2022/02/06 20:50:24;;;;;;;17.27;9.63;;;1.50;99.90;;;;;;5015702;28;20022;-91
2022/02/06 20:52:50;;;;;;;37.05;16.58;;;1.50;99.90;;;;;;5026610;28;20491;-90
2022/02/06 20:55:17;;;;;;;24.13;12.98;;;1.40;99.90;;;;;;5036264;28;20064;-91
2022/02/06 20:57:43;;;;;;;34.25;16.65;;;1.40;99.90;;;;;;5035578;28;20132;-90
2022/02/06 21:00:11;;;;;;;58.20;32.17;;;1.50;99.90;;;;;;5035530;28;20026;-90
2022/02/06 21:02:37;;;;;;;32.50;16.95;;;1.40;99.90;;;;;;5034965;28;20103;-90
2022/02/06 21:05:04;;;;;;;32.78;17.60;;;1.40;99.90;;;;;;5034939;28;20023;-90
2022/02/06 21:07:31;;;;;;;21.40;10.15;;;1.40;99.90;;;;;;5035391;28;20032;-89
2022/02/06 21:09:57;;;;;;;21.75;10.38;;;1.40;99.90;;;;;;5035040;28;20104;-90
2022/02/06 21:12:23;;;;;;;17.73;8.88;;;1.50;99.90;;;;;;5034950;28;20057;-90
2022/02/06 21:14:49;;;;;;;19.67;9.93;;;1.50;99.90;;;;;;5034825;28;20071;-90
2022/02/06 21:17:18;;;;;;;22.52;11.60;;;1.50;99.90;;;;;;5023325;28;21046;-90
2022/02/06 21:19:44;;;;;;;22.58;11.00;;;1.40;99.90;;;;;;5014885;28;20053;-90
2022/02/06 21:22:09;;;;;;;20.10;10.38;;;1.50;99.90;;;;;;5025005;28;20029;-90
2022/02/06 21:24:35;;;;;;;16.92;9.10;;;1.40;99.90;;;;;;5034699;28;20067;-89
2022/02/06 21:27:01;;;;;;;17.13;9.05;;;1.50;99.90;;;;;;5034612;28;20026;-90
2022/02/06 21:29:30;;;;;;;18.15;8.93;;;1.50;99.90;;;;;;5034594;28;20021;-90
2022/02/06 21:31:55;;;;;;;17.08;8.48;;;1.50;99.90;;;;;;5034584;28;20037;-91
2022/02/06 21:34:25;;;;;;;17.10;9.02;;;1.50;99.90;;;;;;5034519;28;20029;-90
2022/02/06 21:36:51;;;;;;;16.80;9.07;;;1.50;99.90;;;;;;5034441;28;20045;-90
2022/02/06 21:39:16;;;;;;;16.15;9.07;;;1.50;99.90;;;;;;5034479;28;20068;-90
2022/02/06 21:41:44;;;;;;;21.58;11.57;;;1.50;99.90;;;;;;5035064;28;20033;-89
2022/02/06 21:44:10;;;;;;;18.90;10.20;;;1.50;99.90;;;;;;5034352;28;20026;-89
2022/02/06 21:46:36;;;;;;;28.70;15.10;;;1.50;99.90;;;;;;5033937;28;20048;-90
2022/02/06 21:49:02;;;;;;;27.48;16.52;;;1.50;99.90;;;;;;5034191;28;20025;-90
2022/02/06 21:51:29;;;;;;;22.83;14.10;;;1.50;99.90;;;;;;5034708;28;20025;-89
2022/02/06 21:53:58;;;;;;;26.95;15.93;;;1.60;99.90;;;;;;5034956;28;20116;-90
2022/02/06 21:56:25;;;;;;;21.55;11.27;;;1.60;99.90;;;;;;5034190;28;20116;-90
2022/02/06 21:58:53;;;;;;;18.38;9.73;;;1.60;99.90;;;;;;5034018;28;20053;-90
2022/02/06 22:01:18;;;;;;;18.42;9.75;;;1.60;99.90;;;;;;5033969;28;20021;-90
2022/02/06 22:03:46;;;;;;;19.02;9.40;;;1.60;99.90;;;;;;5034002;28;20041;-90
2022/02/06 22:06:17;;;;;;;15.02;8.60;;;1.60;99.90;;;;;;5034189;28;20029;-90
2022/02/06 22:23:45;;;;;;;12.70;7.78;;;1.60;99.90;;;;;;5015219;28;20065;-90
2022/02/06 22:30:47;;;;;;;20.25;8.60;;;1.60;99.90;;;;;;5015358;28;20450;-90
2022/02/06 22:33:13;;;;;;;21.40;12.98;;;1.60;99.90;;;;;;5014209;28;20049;-91
2022/02/06 22:35:39;;;;;;;21.25;11.07;;;1.60;99.90;;;;;;5021796;28;20595;-90
2022/02/06 22:38:05;;;;;;;22.00;11.20;;;1.60;99.90;;;;;;5033674;28;20028;-90
2022/02/06 22:40:31;;;;;;;18.55;10.57;;;1.60;99.90;;;;;;5033496;28;20025;-90
2022/02/06 22:42:59;;;;;;;20.48;12.02;;;1.60;99.90;;;;;;5034121;28;20036;-90
2022/02/06 22:45:26;;;;;;;24.85;14.82;;;1.50;99.90;;;;;;5033829;28;20384;-91
2022/02/06 22:47:51;;;;;;;17.95;9.95;;;1.50;99.90;;;;;;5033905;28;20021;-89
2022/02/06 22:50:17;;;;;;;14.57;8.68;;;1.50;99.90;;;;;;5033879;28;20025;-90
2022/02/06 22:52:46;;;;;;;13.93;8.43;;;1.60;99.90;;;;;;5033186;28;20029;-90
2022/02/06 22:55:18;;;;;;;15.10;8.75;;;1.50;99.90;;;;;;5033138;28;20499;-90
2022/02/06 22:57:44;;;;;;;15.98;8.32;;;1.60;99.90;;;;;;5033175;28;20108;-90
2022/02/06 23:00:10;;;;;;;14.48;7.47;;;1.50;99.90;;;;;;5033370;28;20026;-90
2022/02/06 23:02:36;;;;;;;16.70;7.75;;;1.50;99.90;;;;;;5032285;28;20187;-89
2022/02/06 23:05:02;;;;;;;17.27;8.45;;;1.50;99.90;;;;;;5022534;28;20073;-90
2022/02/06 23:07:28;;;;;;;13.50;7.65;;;1.50;99.90;;;;;;5013269;28;20030;-90
2022/02/06 23:09:57;;;;;;;15.63;8.07;;;1.40;99.90;;;;;;5020164;28;20024;-90
2022/02/06 23:12:24;;;;;;;15.32;8.15;;;1.50;99.90;;;;;;5017102;28;20037;-90
2022/02/06 23:14:50;;;;;;;16.33;8.27;;;1.40;99.90;;;;;;5034265;28;20026;-90
2022/02/06 23:17:16;;;;;;;13.88;8.20;;;1.40;99.90;;;;;;5033280;28;20084;-90
2022/02/06 23:19:42;;;;;;;15.75;7.97;;;1.40;99.90;;;;;;5033053;28;20076;-89
2022/02/06 23:22:09;;;;;;;18.45;8.25;;;1.40;99.90;;;;;;5032756;28;20025;-90
2022/02/06 23:24:35;;;;;;;14.88;8.00;;;1.50;99.90;;;;;;5035398;28;20022;-89
2022/02/06 23:27:01;;;;;;;15.65;7.82;;;1.50;99.90;;;;;;5037591;28;20421;-90
2022/02/06 23:29:27;;;;;;;13.13;8.25;;;1.50;99.90;;;;;;5036895;28;20022;-90
2022/02/06 23:31:53;;;;;;;19.52;10.23;;;1.50;99.90;;;;;;5020629;28;20033;-90
2022/02/06 23:34:23;;;;;;;63.55;28.48;;;1.40;99.90;;;;;;5036502;28;20030;-91
2022/02/06 23:36:49;;;;;;;29.20;12.98;;;1.50;99.90;;;;;;5037967;28;20029;-90
2022/02/06 23:39:17;;;;;;;19.70;10.02;;;1.40;99.90;;;;;;5036321;28;20037;-90